Central Nyack, New York
Current Conditions -  °F | °C
As of 11:56 PM on Friday 19 Dec 2014 (Local Time) from KHPN Reporting Station
Clear Clear  
Wind Chill: 19°   Ceiling: Unl
Heat Index: 28°   Visibility: 10mi
Dew Point: 20°   Wind: 10mph
Humidity: 72%   Direction: 320°NW
Pressure: 30.17"   Gusts: NA
Location:  41.0938°N, 73.9254°W
Report Text: KHPN 200456Z 32009KT 10SM CLR M02/M07 A3017 RMK AO2 SLP225 T10221067 400281028
Loading
Personal Weather Stations






























Interactive Weather Map New forecast layout! Learn more

10-Day Weather Forecast

Advertisements
Track Severe Weather on mobile